createdAt,value
2022-08-08T00:02:31.511Z,17.12
2022-08-08T00:08:04.762Z,17.06
2022-08-08T00:14:17.420Z,16.99
2022-08-08T00:19:14.281Z,16.92
2022-08-08T00:24:24.078Z,16.86
2022-08-08T00:29:46.982Z,16.83
2022-08-08T00:35:18.637Z,16.81
2022-08-08T00:41:12.598Z,16.84
2022-08-08T00:45:56.581Z,16.86
2022-08-08T00:51:39.079Z,16.88
2022-08-08T00:56:57.798Z,16.85
2022-08-08T01:03:58.583Z,16.78
2022-08-08T01:08:33.844Z,16.67
2022-08-08T01:14:16.293Z,16.56
2022-08-08T01:20:02.607Z,16.44
2022-08-08T01:25:42.871Z,16.31
2022-08-08T01:32:05.686Z,16.14
2022-08-08T01:37:13.765Z,15.96
2022-08-08T01:42:35.538Z,15.89
2022-08-08T01:48:16.559Z,15.94
2022-08-08T01:55:16.258Z,16.02
2022-08-08T01:59:08.077Z,16.04
2022-08-08T02:04:29.618Z,16.04
2022-08-08T02:10:02.581Z,15.98
2022-08-08T02:15:16.123Z,15.89
2022-08-08T02:21:01.426Z,15.79
2022-08-08T02:26:16.751Z,15.74
2022-08-08T02:32:00.404Z,15.76
2022-08-08T02:37:53.443Z,15.82
2022-08-08T02:44:38.333Z,15.86
2022-08-08T02:49:50.882Z,15.89
2022-08-08T02:55:20.803Z,15.90
2022-08-08T03:00:36.584Z,15.88
2022-08-08T03:06:02.177Z,15.84
2022-08-08T03:12:01.912Z,15.81
2022-08-08T03:17:34.036Z,15.82
2022-08-08T03:22:56.652Z,15.84
2022-08-08T03:28:18.792Z,15.83
2022-08-08T03:33:56.972Z,15.79
2022-08-08T03:38:57.564Z,15.71
2022-08-08T03:44:10.660Z,15.62
2022-08-08T03:50:00.382Z,15.60
2022-08-08T03:55:02.511Z,15.65
2022-08-08T04:00:18.222Z,15.68
2022-08-08T04:05:28.010Z,15.68
2022-08-08T04:10:35.232Z,15.66
2022-08-08T04:15:39.279Z,15.59
2022-08-08T04:21:01.753Z,15.50
2022-08-08T04:26:10.731Z,15.49
2022-08-08T04:31:56.818Z,15.53
2022-08-08T04:36:38.402Z,15.59
2022-08-08T04:41:41.201Z,15.61
2022-08-08T04:46:45.027Z,15.63
2022-08-08T04:51:57.194Z,15.66
2022-08-08T04:57:00.385Z,15.69
2022-08-08T05:02:03.457Z,15.74
2022-08-08T05:07:07.024Z,15.85
2022-08-08T05:12:09.990Z,16.02
2022-08-08T05:17:23.998Z,16.11
2022-08-08T05:22:27.947Z,16.12
2022-08-08T05:27:33.263Z,16.16
2022-08-08T05:32:39.352Z,16.30
2022-08-08T05:37:53.440Z,16.49
2022-08-08T05:43:38.397Z,16.72
2022-08-08T05:48:34.612Z,16.93
2022-08-08T05:53:56.165Z,17.13
2022-08-08T05:59:05.549Z,17.34
2022-08-08T06:04:22.564Z,17.55
2022-08-08T06:09:58.482Z,17.96
2022-08-08T06:14:58.352Z,18.34
2022-08-08T06:20:12.521Z,18.60
2022-08-08T06:25:18.931Z,18.78
2022-08-08T06:30:44.501Z,18.97
2022-08-08T06:36:07.222Z,19.16
2022-08-08T06:41:15.213Z,19.42
2022-08-08T06:46:18.625Z,19.64
2022-08-08T06:51:46.717Z,19.87
2022-08-08T06:56:51.286Z,20.10
2022-08-08T07:02:27.678Z,20.23
2022-08-08T07:07:55.240Z,20.46
2022-08-08T07:13:06.149Z,20.91
2022-08-08T07:18:35.488Z,21.27
2022-08-08T07:23:57.618Z,21.65
2022-08-08T07:29:08.132Z,22.09
2022-08-08T07:34:26.791Z,22.28
2022-08-08T07:39:45.819Z,22.40
2022-08-08T07:44:59.491Z,22.66
2022-08-08T07:50:05.247Z,22.70
2022-08-08T07:55:17.576Z,22.77
2022-08-08T08:00:23.903Z,22.96
2022-08-08T08:05:33.413Z,23.19
2022-08-08T08:10:39.470Z,23.32
2022-08-08T08:15:42.373Z,23.35
2022-08-08T08:20:46.041Z,23.50
2022-08-08T08:25:51.892Z,23.85
2022-08-08T08:31:04.779Z,24.06
2022-08-08T08:36:18.826Z,24.17
2022-08-08T08:41:25.557Z,24.34
2022-08-08T08:46:35.698Z,24.59
2022-08-08T08:51:51.741Z,24.77
2022-08-08T08:56:56.214Z,25.08
2022-08-08T09:02:00.039Z,25.15
2022-08-08T09:07:12.197Z,25.12
2022-08-08T09:12:19.886Z,25.09
2022-08-08T09:17:41.024Z,25.05
2022-08-08T09:22:46.201Z,24.91
2022-08-08T09:27:57.009Z,24.80
2022-08-08T09:33:55.006Z,24.68
2022-08-08T09:38:53.389Z,24.56
2022-08-08T09:44:05.632Z,24.46
2022-08-08T09:49:42.840Z,24.26
2022-08-08T09:54:43.985Z,24.10
2022-08-08T10:00:14.724Z,24.08
2022-08-08T10:05:25.463Z,24.19
2022-08-08T10:10:33.006Z,24.16
2022-08-08T10:15:39.179Z,24.11
2022-08-08T10:20:57.724Z,24.16
2022-08-08T10:26:04.283Z,24.26
2022-08-08T10:31:47.396Z,24.38
2022-08-08T10:36:51.875Z,24.55
2022-08-08T10:42:16.881Z,24.66
2022-08-08T10:47:21.024Z,24.70
2022-08-08T10:52:31.134Z,24.74
2022-08-08T10:57:41.421Z,24.87
2022-08-08T11:02:55.243Z,25.05
2022-08-08T11:08:30.814Z,25.15
2022-08-08T11:13:30.070Z,25.11
2022-08-08T11:18:37.009Z,25.04
2022-08-08T11:23:42.350Z,24.94
2022-08-08T11:28:46.158Z,24.81
2022-08-08T11:34:01.479Z,24.74
2022-08-08T11:39:13.019Z,24.70
2022-08-08T11:44:16.160Z,24.74
2022-08-08T11:49:20.386Z,24.88
2022-08-08T11:54:38.355Z,25.02
2022-08-08T12:00:02.088Z,25.17
2022-08-08T12:05:13.525Z,25.35
2022-08-08T12:10:18.972Z,25.36
2022-08-08T12:15:28.406Z,25.27
2022-08-08T12:20:40.811Z,25.20
2022-08-08T12:25:52.470Z,25.13
2022-08-08T12:31:06.010Z,25.05
2022-08-08T12:36:14.437Z,24.97
2022-08-08T12:41:33.420Z,24.89
2022-08-08T12:46:37.725Z,24.75
2022-08-08T12:51:50.033Z,24.61
2022-08-08T12:57:13.419Z,24.44
2022-08-08T13:02:29.210Z,24.26
2022-08-08T13:08:03.152Z,24.15
2022-08-08T13:13:05.999Z,24.06
2022-08-08T13:18:14.036Z,24.02
2022-08-08T13:23:35.933Z,23.99
2022-08-08T13:28:45.479Z,23.93
2022-08-08T13:33:50.120Z,23.91
2022-08-08T13:38:53.983Z,23.86
2022-08-08T13:43:57.580Z,23.83
2022-08-08T13:50:32.173Z,23.82
2022-08-08T13:54:31.128Z,23.83
2022-08-08T13:59:40.681Z,23.86
2022-08-08T14:05:22.396Z,23.89
2022-08-08T14:10:33.381Z,23.90
2022-08-08T14:15:46.376Z,23.93
2022-08-08T14:21:08.115Z,23.92
2022-08-08T14:26:28.555Z,23.90
2022-08-08T14:32:06.251Z,23.85
2022-08-08T14:36:54.605Z,23.82
2022-08-08T14:42:07.460Z,23.81
2022-08-08T14:47:17.148Z,23.77
2022-08-08T14:52:24.594Z,23.70
2022-08-08T14:58:02.425Z,23.62
2022-08-08T15:02:58.475Z,23.60
2022-08-08T15:08:04.575Z,23.59
2022-08-08T15:13:11.287Z,23.56
2022-08-08T15:18:14.115Z,23.51
2022-08-08T15:23:22.726Z,23.48
2022-08-08T15:28:36.464Z,23.48
2022-08-08T15:33:58.971Z,23.49
2022-08-08T15:39:03.791Z,23.50
2022-08-08T15:44:11.134Z,23.51
2022-08-08T15:49:17.018Z,23.51
2022-08-08T15:54:38.488Z,23.52
2022-08-08T16:00:12.066Z,23.53
2022-08-08T16:05:09.439Z,23.55
2022-08-08T16:13:05.030Z,23.50
2022-08-08T16:15:58.574Z,23.48
2022-08-08T16:21:03.579Z,23.48
2022-08-08T16:26:17.369Z,23.45
2022-08-08T16:31:22.630Z,23.36
2022-08-08T16:36:34.090Z,23.25
2022-08-08T16:41:37.092Z,23.14
2022-08-08T16:46:46.070Z,23.02
2022-08-08T16:55:05.141Z,22.90
2022-08-08T16:58:12.701Z,22.80
2022-08-08T17:02:39.385Z,22.72
2022-08-08T17:07:42.639Z,22.64
2022-08-08T17:12:52.635Z,22.55
2022-08-08T17:18:03.773Z,22.42
2022-08-08T17:23:16.642Z,22.33
2022-08-08T17:28:34.657Z,22.21
2022-08-08T17:34:37.233Z,22.11
2022-08-08T17:39:05.353Z,22.00
2022-08-08T17:44:26.893Z,21.88
2022-08-08T17:49:42.654Z,21.80
2022-08-08T17:54:46.553Z,21.72
2022-08-08T17:59:59.111Z,21.64
2022-08-08T18:05:05.826Z,21.57
2022-08-08T18:10:09.147Z,21.53
2022-08-08T18:15:12.421Z,21.47
2022-08-08T18:20:44.015Z,21.42
2022-08-08T18:25:38.301Z,21.35
2022-08-08T18:30:43.040Z,21.29
2022-08-08T18:35:48.930Z,21.26
2022-08-08T18:40:51.731Z,21.23
2022-08-08T18:46:54.394Z,21.17
2022-08-08T18:51:49.155Z,21.09
2022-08-08T18:56:44.092Z,21.03
2022-08-08T19:02:27.665Z,20.97
2022-08-08T19:07:09.515Z,20.94
2022-08-08T19:12:13.449Z,20.89
2022-08-08T19:17:28.804Z,20.83
2022-08-08T19:22:39.087Z,20.80
2022-08-08T19:27:57.262Z,20.75
2022-08-08T19:33:02.559Z,20.73
2022-08-08T19:38:06.505Z,20.68
2022-08-08T19:43:12.804Z,20.61
2022-08-08T19:48:29.381Z,20.55
2022-08-08T19:53:53.249Z,20.50
2022-08-08T19:58:56.897Z,20.45
2022-08-08T20:04:03.600Z,20.43
2022-08-08T20:09:09.113Z,20.40
2022-08-08T20:14:33.971Z,20.37
2022-08-08T20:19:42.420Z,20.31
2022-08-08T20:24:46.643Z,20.27
2022-08-08T20:29:56.028Z,20.22
2022-08-08T20:35:05.431Z,20.18
2022-08-08T20:40:16.484Z,20.13
2022-08-08T20:45:55.328Z,20.08
2022-08-08T20:50:43.287Z,20.01
2022-08-08T20:55:51.318Z,19.95
2022-08-08T21:00:54.383Z,19.86
2022-08-08T21:05:58.631Z,19.80
2022-08-08T21:11:02.553Z,19.72
2022-08-08T21:16:20.657Z,19.64
2022-08-08T21:21:41.214Z,19.56
2022-08-08T21:26:44.647Z,19.49
2022-08-08T21:31:58.945Z,19.43
2022-08-08T21:37:11.158Z,19.39
2022-08-08T21:42:14.394Z,19.31
2022-08-08T21:48:06.009Z,19.25
2022-08-08T21:54:32.397Z,19.20
2022-08-08T21:58:05.542Z,19.16
2022-08-08T22:03:11.098Z,19.15
2022-08-08T22:08:24.168Z,19.20
2022-08-08T22:13:27.238Z,19.24
2022-08-08T22:18:52.703Z,19.23
2022-08-08T22:23:55.904Z,19.19
2022-08-08T22:29:13.558Z,19.12
2022-08-08T22:34:24.114Z,19.03
2022-08-08T22:39:45.762Z,18.95
2022-08-08T22:44:54.238Z,18.85
2022-08-08T22:50:00.938Z,18.74
2022-08-08T22:55:05.934Z,18.62
2022-08-08T23:00:13.434Z,18.57
2022-08-08T23:05:16.295Z,18.59
2022-08-08T23:10:21.347Z,18.58
2022-08-08T23:16:39.107Z,18.56
2022-08-08T23:20:54.649Z,18.54
2022-08-08T23:25:58.655Z,18.44
2022-08-08T23:31:02.510Z,18.34
2022-08-08T23:36:08.614Z,18.26
2022-08-08T23:41:22.791Z,18.24
2022-08-08T23:49:00.082Z,18.20
2022-08-08T23:52:05.815Z,18.12
2022-08-08T23:57:25.304Z,18.01
